sensor_id;sensor_type;location;lat;lon;timestamp;P1;durP1;ratioP1;P2;durP2;ratioP2
30249;SDS011;17064;47.974;13.826;2022-12-20T04:00:32;79.53;;;26.60;;
30249;SDS011;17064;47.974;13.826;2022-12-20T04:05:33;90.50;;;30.02;;
30249;SDS011;17064;47.974;13.826;2022-12-20T04:10:34;84.20;;;27.75;;
30249;SDS011;17064;47.974;13.826;2022-12-20T04:15:58;75.05;;;26.73;;
30249;SDS011;17064;47.974;13.826;2022-12-20T04:20:59;72.32;;;24.75;;
30249;SDS011;17064;47.974;13.826;2022-12-20T04:26:01;76.97;;;27.48;;
30249;SDS011;17064;47.974;13.826;2022-12-20T04:31:03;81.95;;;28.15;;
30249;SDS011;17064;47.974;13.826;2022-12-20T04:36:04;79.45;;;28.83;;
30249;SDS011;17064;47.974;13.826;2022-12-20T04:41:05;84.18;;;28.73;;
30249;SDS011;17064;47.974;13.826;2022-12-20T04:46:06;76.97;;;27.92;;
30249;SDS011;17064;47.974;13.826;2022-12-20T04:51:07;74.32;;;26.83;;
30249;SDS011;17064;47.974;13.826;2022-12-20T04:56:08;73.22;;;27.67;;
30249;SDS011;17064;47.974;13.826;2022-12-20T05:01:09;67.70;;;25.30;;
30249;SDS011;17064;47.974;13.826;2022-12-20T05:06:09;70.90;;;25.17;;
30249;SDS011;17064;47.974;13.826;2022-12-20T05:11:10;61.45;;;23.63;;
30249;SDS011;17064;47.974;13.826;2022-12-20T05:16:11;79.07;;;27.38;;
30249;SDS011;17064;47.974;13.826;2022-12-20T05:21:12;68.25;;;25.23;;
30249;SDS011;17064;47.974;13.826;2022-12-20T05:26:33;62.63;;;25.27;;
30249;SDS011;17064;47.974;13.826;2022-12-20T05:31:36;64.38;;;25.83;;
30249;SDS011;17064;47.974;13.826;2022-12-20T05:36:37;70.15;;;25.88;;
30249;SDS011;17064;47.974;13.826;2022-12-20T05:41:37;68.88;;;26.55;;
30249;SDS011;17064;47.974;13.826;2022-12-20T05:46:39;70.00;;;25.33;;
30249;SDS011;17064;47.974;13.826;2022-12-20T05:51:40;75.68;;;27.05;;
30249;SDS011;17064;47.974;13.826;2022-12-20T05:56:41;69.43;;;25.38;;
30249;SDS011;17064;47.974;13.826;2022-12-20T06:01:42;77.65;;;26.35;;
30249;SDS011;17064;47.974;13.826;2022-12-20T06:06:43;69.95;;;25.02;;
30249;SDS011;17064;47.974;13.826;2022-12-20T06:11:43;70.47;;;26.33;;
30249;SDS011;17064;47.974;13.826;2022-12-20T06:16:44;74.25;;;25.45;;
30249;SDS011;17064;47.974;13.826;2022-12-20T06:21:45;69.32;;;26.25;;
30249;SDS011;17064;47.974;13.826;2022-12-20T06:26:46;74.57;;;26.95;;
30249;SDS011;17064;47.974;13.826;2022-12-20T06:31:47;77.00;;;29.55;;
30249;SDS011;17064;47.974;13.826;2022-12-20T06:36:47;67.80;;;26.50;;
30249;SDS011;17064;47.974;13.826;2022-12-20T06:41:48;58.75;;;24.45;;
30249;SDS011;17064;47.974;13.826;2022-12-20T06:46:49;69.72;;;24.73;;
30249;SDS011;17064;47.974;13.826;2022-12-20T06:51:49;56.97;;;23.52;;
30249;SDS011;17064;47.974;13.826;2022-12-20T06:56:50;56.92;;;23.42;;
30249;SDS011;17064;47.974;13.826;2022-12-20T07:01:51;55.10;;;21.70;;
30249;SDS011;17064;47.974;13.826;2022-12-20T07:06:52;63.63;;;24.20;;
30249;SDS011;17064;47.974;13.826;2022-12-20T07:11:52;62.80;;;24.35;;
30249;SDS011;17064;47.974;13.826;2022-12-20T07:16:53;61.78;;;24.42;;
30249;SDS011;17064;47.974;13.826;2022-12-20T07:21:54;67.18;;;24.20;;
30249;SDS011;17064;47.974;13.826;2022-12-20T07:26:55;67.75;;;24.33;;
30249;SDS011;17064;47.974;13.826;2022-12-20T07:31:56;75.45;;;24.85;;
30249;SDS011;17064;47.974;13.826;2022-12-20T07:36:57;80.55;;;27.27;;
30249;SDS011;17064;47.974;13.826;2022-12-20T07:41:58;86.05;;;27.40;;
30249;SDS011;17064;47.974;13.826;2022-12-20T07:46:59;79.78;;;24.67;;
30249;SDS011;17064;47.974;13.826;2022-12-20T07:52:00;75.03;;;25.48;;
30249;SDS011;17064;47.974;13.826;2022-12-20T07:57:05;85.18;;;25.92;;
30249;SDS011;17064;47.974;13.826;2022-12-20T08:02:13;80.50;;;26.60;;
30249;SDS011;17064;47.974;13.826;2022-12-20T08:07:18;82.07;;;28.67;;
30249;SDS011;17064;47.974;13.826;2022-12-20T08:12:19;80.68;;;27.75;;
30249;SDS011;17064;47.974;13.826;2022-12-20T08:17:21;82.57;;;25.58;;
30249;SDS011;17064;47.974;13.826;2022-12-20T08:22:22;79.38;;;27.45;;
30249;SDS011;17064;47.974;13.826;2022-12-20T08:27:23;80.43;;;25.92;;
30249;SDS011;17064;47.974;13.826;2022-12-20T08:32:24;80.60;;;26.88;;
30249;SDS011;17064;47.974;13.826;2022-12-20T08:37:25;82.93;;;26.20;;
30249;SDS011;17064;47.974;13.826;2022-12-20T08:42:26;75.38;;;25.42;;
30249;SDS011;17064;47.974;13.826;2022-12-20T08:47:28;77.88;;;26.58;;
30249;SDS011;17064;47.974;13.826;2022-12-20T08:52:29;73.43;;;25.10;;
30249;SDS011;17064;47.974;13.826;2022-12-20T08:57:30;66.00;;;24.20;;
30249;SDS011;17064;47.974;13.826;2022-12-20T09:02:31;65.20;;;24.15;;
30249;SDS011;17064;47.974;13.826;2022-12-20T09:07:33;71.20;;;23.70;;
30249;SDS011;17064;47.974;13.826;2022-12-20T09:12:35;63.80;;;22.75;;
30249;SDS011;17064;47.974;13.826;2022-12-20T09:17:37;68.27;;;24.67;;
30249;SDS011;17064;47.974;13.826;2022-12-20T09:22:39;66.65;;;22.70;;
30249;SDS011;17064;47.974;13.826;2022-12-20T09:27:40;61.30;;;22.67;;
30249;SDS011;17064;47.974;13.826;2022-12-20T09:32:41;72.50;;;23.60;;
30249;SDS011;17064;47.974;13.826;2022-12-20T09:37:42;73.70;;;24.48;;
30249;SDS011;17064;47.974;13.826;2022-12-20T09:42:42;73.47;;;26.25;;
30249;SDS011;17064;47.974;13.826;2022-12-20T09:47:43;73.50;;;26.42;;
30249;SDS011;17064;47.974;13.826;2022-12-20T09:52:54;70.45;;;24.63;;
30249;SDS011;17064;47.974;13.826;2022-12-20T10:03:46;76.30;;;26.73;;
30249;SDS011;17064;47.974;13.826;2022-12-20T10:09:01;77.82;;;25.58;;
30249;SDS011;17064;47.974;13.826;2022-12-20T10:24:34;73.00;;;25.77;;
30249;SDS011;17064;47.974;13.826;2022-12-20T10:29:36;63.17;;;23.30;;
30249;SDS011;17064;47.974;13.826;2022-12-20T10:34:37;63.13;;;24.25;;
30249;SDS011;17064;47.974;13.826;2022-12-20T10:39:48;67.82;;;24.02;;
30249;SDS011;17064;47.974;13.826;2022-12-20T10:44:50;61.53;;;22.80;;
30249;SDS011;17064;47.974;13.826;2022-12-20T10:49:51;67.15;;;23.70;;
30249;SDS011;17064;47.974;13.826;2022-12-20T11:00:34;74.00;;;23.95;;
30249;SDS011;17064;47.974;13.826;2022-12-20T11:05:35;65.40;;;22.85;;
30249;SDS011;17064;47.974;13.826;2022-12-20T11:10:36;73.43;;;25.27;;
30249;SDS011;17064;47.974;13.826;2022-12-20T11:15:37;67.10;;;23.17;;
30249;SDS011;17064;47.974;13.826;2022-12-20T11:37:20;69.75;;;24.17;;
30249;SDS011;17064;47.974;13.826;2022-12-20T11:53:04;70.38;;;24.27;;
30249;SDS011;17064;47.974;13.826;2022-12-20T11:58:21;73.80;;;24.17;;
30249;SDS011;17064;47.974;13.826;2022-12-20T12:03:29;69.32;;;24.75;;
30249;SDS011;17064;47.974;13.826;2022-12-20T12:14:28;69.00;;;23.77;;
30249;SDS011;17064;47.974;13.826;2022-12-20T12:19:35;70.90;;;24.05;;
30249;SDS011;17064;47.974;13.826;2022-12-20T12:24:40;68.32;;;24.02;;
30249;SDS011;17064;47.974;13.826;2022-12-20T12:29:45;68.03;;;23.58;;
30249;SDS011;17064;47.974;13.826;2022-12-20T12:45:42;66.88;;;22.25;;
30249;SDS011;17064;47.974;13.826;2022-12-20T12:50:48;64.45;;;22.27;;
30249;SDS011;17064;47.974;13.826;2022-12-20T12:55:51;61.88;;;21.08;;
30249;SDS011;17064;47.974;13.826;2022-12-20T13:00:56;62.35;;;22.17;;
30249;SDS011;17064;47.974;13.826;2022-12-20T13:05:57;56.30;;;20.23;;
30249;SDS011;17064;47.974;13.826;2022-12-20T13:11:32;60.22;;;20.80;;
30249;SDS011;17064;47.974;13.826;2022-12-20T13:16:36;62.88;;;22.20;;
30249;SDS011;17064;47.974;13.826;2022-12-20T13:21:40;64.13;;;22.08;;
30249;SDS011;17064;47.974;13.826;2022-12-20T13:31:51;67.07;;;21.67;;
30249;SDS011;17064;47.974;13.826;2022-12-20T13:36:56;65.00;;;22.88;;
30249;SDS011;17064;47.974;13.826;2022-12-20T13:42:12;53.60;;;19.63;;
30249;SDS011;17064;47.974;13.826;2022-12-20T13:47:36;64.10;;;22.85;;
30249;SDS011;17064;47.974;13.826;2022-12-20T13:52:41;76.40;;;24.42;;
30249;SDS011;17064;47.974;13.826;2022-12-20T13:57:43;69.63;;;22.23;;
30249;SDS011;17064;47.974;13.826;2022-12-20T14:02:46;71.85;;;24.52;;
30249;SDS011;17064;47.974;13.826;2022-12-20T14:07:47;67.82;;;22.65;;
30249;SDS011;17064;47.974;13.826;2022-12-20T14:12:55;72.55;;;22.60;;
30249;SDS011;17064;47.974;13.826;2022-12-20T14:17:56;61.83;;;22.02;;
30249;SDS011;17064;47.974;13.826;2022-12-20T14:23:08;71.22;;;22.27;;
30249;SDS011;17064;47.974;13.826;2022-12-20T14:28:16;76.35;;;23.88;;
30249;SDS011;17064;47.974;13.826;2022-12-20T14:33:27;66.60;;;23.30;;
30249;SDS011;17064;47.974;13.826;2022-12-20T14:38:39;66.38;;;21.92;;
30249;SDS011;17064;47.974;13.826;2022-12-20T14:43:40;69.72;;;24.52;;
30249;SDS011;17064;47.974;13.826;2022-12-20T14:48:41;71.28;;;23.25;;
30249;SDS011;17064;47.974;13.826;2022-12-20T14:53:43;76.15;;;23.98;;
30249;SDS011;17064;47.974;13.826;2022-12-20T14:58:47;69.70;;;24.17;;
30249;SDS011;17064;47.974;13.826;2022-12-20T15:04:02;68.25;;;22.73;;
30249;SDS011;17064;47.974;13.826;2022-12-20T15:09:32;62.42;;;21.63;;
30249;SDS011;17064;47.974;13.826;2022-12-20T15:14:36;60.17;;;22.23;;
30249;SDS011;17064;47.974;13.826;2022-12-20T15:19:38;62.47;;;21.73;;
30249;SDS011;17064;47.974;13.826;2022-12-20T15:24:39;63.85;;;21.50;;
30249;SDS011;17064;47.974;13.826;2022-12-20T15:29:40;79.32;;;23.55;;
30249;SDS011;17064;47.974;13.826;2022-12-20T15:34:42;72.32;;;23.05;;
30249;SDS011;17064;47.974;13.826;2022-12-20T15:39:43;66.60;;;23.02;;
30249;SDS011;17064;47.974;13.826;2022-12-20T15:44:44;72.80;;;24.45;;
30249;SDS011;17064;47.974;13.826;2022-12-20T15:49:45;65.00;;;21.48;;
30249;SDS011;17064;47.974;13.826;2022-12-20T15:54:46;64.95;;;22.92;;
30249;SDS011;17064;47.974;13.826;2022-12-20T15:59:46;73.32;;;24.58;;
30249;SDS011;17064;47.974;13.826;2022-12-20T16:04:49;74.13;;;22.70;;
30249;SDS011;17064;47.974;13.826;2022-12-20T16:09:50;72.78;;;23.95;;
30249;SDS011;17064;47.974;13.826;2022-12-20T16:14:51;67.72;;;20.73;;
30249;SDS011;17064;47.974;13.826;2022-12-20T16:19:52;77.65;;;24.58;;
30249;SDS011;17064;47.974;13.826;2022-12-20T16:24:54;76.18;;;24.13;;
30249;SDS011;17064;47.974;13.826;2022-12-20T16:29:55;83.03;;;24.27;;
30249;SDS011;17064;47.974;13.826;2022-12-20T16:34:55;74.25;;;23.40;;
30249;SDS011;17064;47.974;13.826;2022-12-20T16:39:56;66.45;;;22.60;;
30249;SDS011;17064;47.974;13.826;2022-12-20T16:44:57;92.45;;;26.50;;
30249;SDS011;17064;47.974;13.826;2022-12-20T16:49:57;74.70;;;23.48;;
30249;SDS011;17064;47.974;13.826;2022-12-20T16:54:58;71.07;;;24.50;;
30249;SDS011;17064;47.974;13.826;2022-12-20T16:59:59;70.88;;;24.33;;
30249;SDS011;17064;47.974;13.826;2022-12-20T17:05:00;73.95;;;25.17;;
30249;SDS011;17064;47.974;13.826;2022-12-20T17:10:01;71.72;;;24.20;;
30249;SDS011;17064;47.974;13.826;2022-12-20T17:15:01;90.10;;;28.17;;
30249;SDS011;17064;47.974;13.826;2022-12-20T17:20:03;79.30;;;25.50;;
30249;SDS011;17064;47.974;13.826;2022-12-20T17:25:05;90.43;;;26.85;;
30249;SDS011;17064;47.974;13.826;2022-12-20T17:30:13;82.82;;;24.67;;
30249;SDS011;17064;47.974;13.826;2022-12-20T17:40:27;85.45;;;26.55;;
30249;SDS011;17064;47.974;13.826;2022-12-20T17:45:29;86.22;;;26.77;;
30249;SDS011;17064;47.974;13.826;2022-12-20T17:50:31;91.88;;;28.05;;
30249;SDS011;17064;47.974;13.826;2022-12-20T17:55:32;80.05;;;24.83;;
30249;SDS011;17064;47.974;13.826;2022-12-20T18:00:32;81.40;;;26.13;;
30249;SDS011;17064;47.974;13.826;2022-12-20T18:05:33;82.07;;;27.00;;
30249;SDS011;17064;47.974;13.826;2022-12-20T18:10:34;91.28;;;27.88;;
30249;SDS011;17064;47.974;13.826;2022-12-20T18:15:36;88.18;;;25.25;;
30249;SDS011;17064;47.974;13.826;2022-12-20T18:20:37;89.88;;;29.08;;
30249;SDS011;17064;47.974;13.826;2022-12-20T18:25:38;102.63;;;28.67;;
30249;SDS011;17064;47.974;13.826;2022-12-20T18:30:39;104.22;;;27.80;;
30249;SDS011;17064;47.974;13.826;2022-12-20T18:35:40;89.78;;;27.45;;
30249;SDS011;17064;47.974;13.826;2022-12-20T18:40:44;103.63;;;28.45;;
30249;SDS011;17064;47.974;13.826;2022-12-20T18:45:45;89.25;;;27.98;;
30249;SDS011;17064;47.974;13.826;2022-12-20T18:50:46;92.00;;;28.45;;
30249;SDS011;17064;47.974;13.826;2022-12-20T18:55:46;99.93;;;28.92;;
30249;SDS011;17064;47.974;13.826;2022-12-20T19:00:50;101.43;;;30.23;;
30249;SDS011;17064;47.974;13.826;2022-12-20T19:05:54;113.90;;;30.92;;
30249;SDS011;17064;47.974;13.826;2022-12-20T19:10:57;105.68;;;28.83;;
30249;SDS011;17064;47.974;13.826;2022-12-20T19:16:03;97.13;;;28.30;;
30249;SDS011;17064;47.974;13.826;2022-12-20T19:21:07;90.15;;;27.13;;
30249;SDS011;17064;47.974;13.826;2022-12-20T19:26:09;102.13;;;29.95;;
30249;SDS011;17064;47.974;13.826;2022-12-20T19:31:12;109.32;;;28.73;;
30249;SDS011;17064;47.974;13.826;2022-12-20T19:36:22;122.57;;;32.38;;
30249;SDS011;17064;47.974;13.826;2022-12-20T19:41:29;114.28;;;29.30;;
30249;SDS011;17064;47.974;13.826;2022-12-20T19:46:31;110.90;;;30.38;;
30249;SDS011;17064;47.974;13.826;2022-12-20T19:51:32;110.95;;;31.90;;
30249;SDS011;17064;47.974;13.826;2022-12-20T19:56:33;101.97;;;31.27;;
30249;SDS011;17064;47.974;13.826;2022-12-20T20:01:35;124.47;;;34.05;;
30249;SDS011;17064;47.974;13.826;2022-12-20T20:06:35;132.10;;;34.67;;
30249;SDS011;17064;47.974;13.826;2022-12-20T20:11:36;117.40;;;32.92;;
30249;SDS011;17064;47.974;13.826;2022-12-20T20:16:37;131.30;;;33.22;;
30249;SDS011;17064;47.974;13.826;2022-12-20T20:21:38;108.25;;;30.75;;
30249;SDS011;17064;47.974;13.826;2022-12-20T20:26:39;128.98;;;34.42;;
30249;SDS011;17064;47.974;13.826;2022-12-20T20:31:40;118.05;;;31.35;;
30249;SDS011;17064;47.974;13.826;2022-12-20T20:36:41;95.50;;;28.45;;
30249;SDS011;17064;47.974;13.826;2022-12-20T20:41:42;107.85;;;27.85;;
30249;SDS011;17064;47.974;13.826;2022-12-20T20:46:43;102.47;;;29.25;;
30249;SDS011;17064;47.974;13.826;2022-12-20T20:51:44;105.63;;;28.98;;
30249;SDS011;17064;47.974;13.826;2022-12-20T20:56:44;108.93;;;30.05;;
30249;SDS011;17064;47.974;13.826;2022-12-20T21:01:45;107.55;;;29.65;;
30249;SDS011;17064;47.974;13.826;2022-12-20T21:06:46;114.45;;;31.48;;
30249;SDS011;17064;47.974;13.826;2022-12-20T21:11:46;95.38;;;28.88;;
30249;SDS011;17064;47.974;13.826;2022-12-20T21:16:47;97.47;;;29.23;;
30249;SDS011;17064;47.974;13.826;2022-12-20T21:21:48;122.90;;;35.70;;
30249;SDS011;17064;47.974;13.826;2022-12-20T21:26:48;102.85;;;30.20;;
30249;SDS011;17064;47.974;13.826;2022-12-20T21:31:50;101.57;;;29.38;;
30249;SDS011;17064;47.974;13.826;2022-12-20T21:36:50;78.40;;;25.95;;
30249;SDS011;17064;47.974;13.826;2022-12-20T21:41:51;92.60;;;27.35;;
30249;SDS011;17064;47.974;13.826;2022-12-20T21:46:52;106.40;;;30.08;;
30249;SDS011;17064;47.974;13.826;2022-12-20T21:51:53;100.57;;;29.25;;
30249;SDS011;17064;47.974;13.826;2022-12-20T21:56:55;102.63;;;28.90;;
30249;SDS011;17064;47.974;13.826;2022-12-20T22:01:56;91.80;;;28.00;;
30249;SDS011;17064;47.974;13.826;2022-12-20T22:06:56;129.07;;;31.27;;
30249;SDS011;17064;47.974;13.826;2022-12-20T22:11:57;97.88;;;29.50;;
30249;SDS011;17064;47.974;13.826;2022-12-20T22:16:58;102.70;;;28.42;;
30249;SDS011;17064;47.974;13.826;2022-12-20T22:21:58;108.70;;;29.75;;
30249;SDS011;17064;47.974;13.826;2022-12-20T22:26:59;121.82;;;30.20;;
30249;SDS011;17064;47.974;13.826;2022-12-20T22:32:00;111.03;;;28.67;;
30249;SDS011;17064;47.974;13.826;2022-12-20T22:37:01;99.32;;;27.08;;
30249;SDS011;17064;47.974;13.826;2022-12-20T22:42:01;92.63;;;25.73;;
30249;SDS011;17064;47.974;13.826;2022-12-20T22:47:02;106.60;;;27.80;;
30249;SDS011;17064;47.974;13.826;2022-12-20T22:52:03;91.68;;;25.38;;
30249;SDS011;17064;47.974;13.826;2022-12-20T22:57:04;89.65;;;25.73;;
30249;SDS011;17064;47.974;13.826;2022-12-20T23:02:04;96.90;;;26.55;;
30249;SDS011;17064;47.974;13.826;2022-12-20T23:07:05;105.65;;;28.58;;
30249;SDS011;17064;47.974;13.826;2022-12-20T23:12:06;99.72;;;28.55;;
30249;SDS011;17064;47.974;13.826;2022-12-20T23:17:27;103.80;;;27.92;;
30249;SDS011;17064;47.974;13.826;2022-12-20T23:22:28;102.95;;;28.83;;
30249;SDS011;17064;47.974;13.826;2022-12-20T23:27:38;94.72;;;27.02;;
30249;SDS011;17064;47.974;13.826;2022-12-20T23:32:40;97.17;;;28.10;;
30249;SDS011;17064;47.974;13.826;2022-12-20T23:37:44;93.28;;;26.60;;
30249;SDS011;17064;47.974;13.826;2022-12-20T23:42:45;87.68;;;24.35;;
30249;SDS011;17064;47.974;13.826;2022-12-20T23:47:46;85.60;;;24.00;;
30249;SDS011;17064;47.974;13.826;2022-12-20T23:52:47;82.57;;;23.08;;
30249;SDS011;17064;47.974;13.826;2022-12-20T23:57:47;97.25;;;26.15;;
